Date,TemperatureHighF,TemperatureAvgF,TemperatureLowF,DewpointHighF,DewpointAvgF,DewpointLowF,HumidityHigh,HumidityAvg,HumidityLow,PressureMaxIn,PressureMinIn,WindSpeedMaxMPH,WindSpeedAvgMPH,GustSpeedMaxMPH,PrecipitationSumIn
2013-1-1,31,25,14,26,20,12,93,83,63,30.24,30.13,6,2,10,0.00
2013-1-2,22,14,7,15,9,4,91,80,67,30.33,30.23,10,6,14,0.00
2013-1-3,29,23,14,25,17,6,89,79,69,30.34,30.23,16,9,24,0.00
2013-1-4,27,21,13,23,17,10,92,84,76,30.36,30.27,22,14,35,0.00
2013-1-5,34,28,21,30,24,18,93,85,76,30.38,30.13,15,8,21,0.00
2013-1-6,35,31,25,32,27,22,91,87,78,30.40,30.02,18,11,24,0.00
2013-1-7,34,27,18,26,23,16,95,85,72,30.48,30.24,17,9,25,0.00
2013-1-8,38,32,27,30,26,23,86,79,68,30.32,30.21,14,8,19,0.00
2013-1-9,40,38,36,33,31,29,76,75,75,30.19,30.17,14,11,18,0.00
2013-1-10,39,36,28,37,30,23,96,78,69,30.58,30.11,11,6,22,0.55
2013-1-11,55,49,39,52,47,37,98,91,83,30.10,29.78,20,12,28,0.34
2013-1-12,58,52,41,51,48,40,96,86,74,29.99,29.84,17,8,21,0.38
2013-1-13,41,33,21,39,32,18,97,95,86,30.25,29.82,20,7,23,0.70
2013-1-16,35,32,27,28,24,18,83,70,54,30.12,29.97,20,14,28,0.00
2013-1-17,36,30,21,29,24,14,92,76,56,30.44,30.12,10,4,18,0.00
2013-1-18,38,31,19,27,22,15,85,69,57,30.52,30.11,24,14,35,0.00
2013-1-19,48,42,38,37,32,27,79,68,60,30.11,29.82,23,17,38,0.01
2013-1-20,41,22,16,32,13,9,78,68,49,30.32,29.84,28,6,42,0.00
2013-1-21,18,12,6,9,3,-4,77,65,55,30.32,30.18,19,12,33,0.00
2013-1-22,12,7,1,-1,-4,-5,73,63,49,30.47,30.32,16,10,31,0.00
2013-1-23,18,14,8,15,5,-1,89,69,53,30.44,30.20,14,9,26,0.00
2013-1-24,19,14,7,15,7,3,90,73,49,30.72,30.27,20,4,24,0.00
2013-1-25,25,20,17,22,15,8,91,80,66,30.53,30.10,11,6,17,0.00
2013-1-26,29,25,22,22,20,18,89,81,71,30.51,30.16,7,2,14,0.00
2013-1-27,34,26,21,32,22,17,95,82,74,30.52,30.11,18,7,22,0.00
2013-1-28,49,44,34,48,44,33,100,98,95,30.12,29.97,17,9,25,0.10
2013-1-29,59,55,46,57,54,46,100,97,93,30.00,29.42,20,14,28,0.87
2013-1-30,59,45,28,57,44,24,99,95,86,29.53,29.22,25,11,35,1.12
2013-1-31,28,18,9,25,13,4,88,79,69,30.14,29.53,24,17,36,0.00
2013-2-1,9,6,4,4,1,-1,81,80,78,30.37,30.14,19,16,31,0.00
2013-2-5,30,27,18,29,24,16,97,90,76,30.10,29.90,13,6,19,0.00
2013-2-6,37,30,24,26,23,18,90,75,53,30.35,30.10,8,4,13,0.02
2013-2-7,43,34,28,34,29,25,97,82,68,30.28,29.86,10,4,16,0.11
2013-2-8,34,31,27,33,27,22,98,86,73,30.44,29.86,18,7,24,0.00
2013-2-9,34,28,21,26,23,18,95,82,69,30.50,30.27,13,5,16,0.00
2013-2-10,48,39,31,47,33,24,95,81,70,30.27,29.68,18,11,26,0.11
2013-2-11,49,36,30,47,30,23,93,76,70,30.06,29.65,28,19,50,0.34
2013-2-12,33,30,27,26,24,21,84,79,72,30.18,30.05,15,8,29,0.00
2013-2-13,43,36,23,31,28,21,95,76,59,29.93,29.81,12,6,18,0.00
2013-2-14,34,34,34,32,31,31,90,89,88,29.86,29.85,8,5,12,0.00
2013-2-15,32,26,22,27,20,16,93,78,60,30.25,30.10,14,4,20,0.00
2013-2-16,24,19,13,20,14,7,90,81,64,30.23,30.15,8,4,21,0.00
2013-2-17,28,20,12,16,12,9,90,71,48,30.33,30.22,10,5,14,0.00
2013-2-18,52,38,24,43,29,13,90,69,59,30.24,29.57,24,15,40,0.15
2013-2-19,45,21,14,42,17,9,93,84,76,30.17,29.53,24,18,39,0.27
2013-2-20,22,17,11,18,13,8,88,84,79,30.42,30.17,16,9,26,0.00
2013-2-21,26,23,20,21,18,15,88,82,77,30.47,30.17,13,6,21,0.00
2013-2-22,34,28,20,33,26,17,98,92,81,30.17,29.94,17,9,27,0.03
2013-2-23,29,27,25,24,21,19,87,80,68,30.05,29.99,14,10,24,0.00
2013-2-24,36,28,20,25,22,18,91,77,60,30.24,30.04,11,5,20,0.00
2013-2-25,40,33,26,30,26,22,90,77,61,30.28,30.08,8,4,12,0.00
2013-2-26,33,32,31,33,29,25,99,89,72,30.08,29.52,18,9,27,0.03
2013-2-27,32,32,32,32,32,32,99,99,99,29.54,29.52,1,0,3,0.00
2013-3-13,29,27,25,23,19,16,80,71,64,30.39,30.23,10,4,21,0.00
2013-3-14,40,34,24,30,21,15,89,61,40,30.39,30.21,14,8,19,0.00
2013-3-15,46,37,30,41,34,28,97,89,71,30.21,29.85,10,6,24,0.31
2013-3-16,41,35,29,40,33,24,99,94,81,30.16,29.70,15,7,19,0.00
2013-3-17,36,30,28,25,23,21,84,76,59,30.28,30.14,10,6,17,0.00
2013-3-18,35,31,27,34,29,22,98,92,77,30.14,29.64,26,9,28,0.02
2013-3-19,33,26,20,22,17,13,81,67,53,30.13,29.84,27,19,45,0.07
2013-3-20,28,24,18,18,14,9,89,65,50,30.13,30.06,16,6,27,0.00
2013-3-21,33,23,14,20,16,11,90,76,52,30.12,30.05,13,4,20,0.00
2013-3-22,40,30,20,22,19,17,88,66,40,30.15,30.06,11,4,16,0.00
2013-3-23,38,30,24,26,23,18,89,74,59,30.20,30.07,13,5,23,0.00
2013-3-24,35,31,27,28,25,24,93,79,65,30.08,29.65,21,11,29,0.00
2013-3-25,35,31,27,30,28,26,96,87,71,30.06,29.65,20,9,25,0.01
2013-3-26,41,34,31,33,29,26,93,82,61,30.29,30.06,8,2,18,0.01
2013-3-27,42,35,31,33,28,21,91,75,49,30.37,30.28,9,3,20,0.00
2013-3-28,49,38,28,28,24,21,75,57,39,30.41,30.34,8,3,14,0.00
2013-3-29,52,38,30,29,26,22,87,63,36,30.39,30.30,8,2,15,0.00
2013-3-30,54,48,32,35,30,19,61,50,42,30.30,29.98,11,6,19,0.00
2013-3-31,59,49,37,44,36,30,98,65,35,29.98,29.72,21,8,32,0.00
2013-4-1,38,34,26,30,21,14,81,60,40,30.22,29.86,13,3,20,0.00
2013-4-2,42,31,23,22,17,9,80,58,27,30.33,30.22,11,4,27,0.00
2013-4-3,44,40,34,24,13,8,63,33,24,30.51,30.41,11,4,20,0.00
2013-4-4,34,32,29,18,16,13,62,52,43,30.41,30.31,7,3,10,0.00
2013-4-5,51,45,37,30,25,16,75,47,25,30.22,30.15,15,9,22,0.00
2013-4-6,65,54,37,40,32,24,60,44,34,30.23,29.78,24,16,33,0.00
2013-4-7,62,54,45,47,42,36,86,64,44,30.02,29.72,24,10,44,0.08
2013-4-8,71,54,43,58,45,35,93,73,49,30.03,29.77,31,9,40,0.25
2013-4-9,76,61,46,61,51,43,91,72,51,30.05,29.86,24,9,32,0.02
2013-4-10,60,51,45,55,49,44,98,93,83,29.95,29.84,19,7,23,0.34
2013-4-11,45,43,40,44,42,40,99,99,97,29.99,29.64,16,7,29,1.08
2013-4-12,42,39,37,41,36,31,99,88,73,29.92,29.64,22,12,34,0.10
2013-4-13,42,38,33,35,32,28,94,78,59,30.06,29.92,18,10,30,0.01
2013-4-14,62,48,38,49,40,32,91,75,61,30.11,29.86,12,6,20,0.00
2013-4-15,64,59,54,57,52,46,90,77,68,29.95,29.85,21,10,25,0.00
2013-4-16,57,48,43,55,42,36,98,82,56,30.28,29.93,13,5,18,0.59
2013-4-17,54,49,44,48,43,38,98,81,72,30.31,29.97,26,8,29,0.84
2013-4-18,71,58,45,65,57,44,99,95,82,29.96,29.55,23,12,42,1.51
2013-4-19,60,39,34,59,35,30,99,85,74,29.93,29.53,28,17,40,1.01
2013-4-20,43,36,32,31,25,19,92,66,41,30.52,29.93,16,6,24,0.00
2013-4-21,50,39,29,32,25,19,74,57,40,30.64,30.47,11,5,15,0.00
2013-4-22,62,50,35,38,32,26,83,55,30,30.47,30.17,10,5,15,0.00
2013-4-23,67,55,48,55,45,38,95,71,52,30.17,29.90,22,8,40,0.19
2013-4-24,45,40,35,35,32,27,93,75,50,30.24,29.92,14,6,25,0.44
2013-4-25,50,44,38,38,33,27,83,66,42,30.42,30.19,19,7,28,0.00
2013-4-26,61,50,38,40,34,29,71,57,41,30.48,30.37,13,8,18,0.00
2013-4-27,67,57,46,48,39,32,69,52,31,30.39,30.08,13,6,21,0.00
2013-4-28,58,55,51,56,52,48,97,91,69,30.08,29.86,8,2,11,0.19
2013-4-29,68,60,52,57,54,52,99,81,58,30.00,29.91,14,7,17,0.00
2013-4-30,78,66,55,61,56,51,86,71,55,30.03,29.93,18,13,23,0.00
2013-5-1,81,72,62,57,55,52,73,56,38,30.19,30.03,13,7,20,0.00
2013-5-2,78,70,62,57,55,51,77,59,41,30.20,30.08,12,6,20,0.00
2013-5-3,75,65,51,60,53,48,91,67,45,30.10,29.96,13,6,21,0.00
2013-5-4,72,65,59,48,44,36,60,46,28,30.04,29.98,11,7,20,0.00
2013-5-5,69,62,52,49,46,41,70,55,44,30.05,30.00,12,5,19,0.00
2013-5-6,72,63,54,54,45,-100,70,54,43,30.04,29.97,9,-10,15,0.00
2013-5-7,74,65,53,55,51,48,85,63,42,30.06,29.99,9,4,18,0.00
2013-5-8,77,65,53,58,48,-100,86,59,42,30.06,29.97,9,-20,13,0.08
2013-5-9,80,66,54,58,53,47,90,65,32,30.01,29.90,17,4,18,0.04
2013-5-10,65,54,45,61,44,-100,96,83,73,29.95,29.80,15,-54,24,0.52
2013-5-11,56,44,40,52,36,-100,97,83,62,30.05,29.87,17,-39,32,0.11
2013-5-12,51,43,36,35,31,27,87,64,40,30.18,30.05,8,4,20,0.00
2013-5-13,59,49,35,36,28,17,93,51,20,30.24,30.15,11,3,19,0.00
2013-5-14,87,67,51,61,44,26,64,44,25,30.14,29.74,19,10,28,0.00
2013-5-15,84,76,66,62,54,48,70,49,29,29.83,29.69,25,10,29,0.02
2013-5-16,81,72,56,55,46,39,85,43,23,30.00,29.83,7,3,17,0.00
2013-5-17,81,69,56,62,50,43,84,53,33,30.09,29.99,16,5,18,0.00
2013-5-18,78,63,56,60,38,-100,68,51,50,30.13,30.00,10,-97,15,0.00
2013-5-19,85,73,60,64,58,50,71,60,48,30.03,29.84,10,4,19,0.00
2013-5-20,75,73,71,70,66,64,91,81,69,29.90,29.84,11,9,16,0.00
2013-5-21,82,76,65,66,63,61,95,68,49,29.81,29.72,20,10,32,0.27
2013-5-22,75,69,64,65,63,58,93,82,61,29.77,29.67,19,9,30,0.11
2013-5-23,65,54,45,59,52,43,97,92,81,30.23,29.76,12,6,19,0.17
2013-5-24,60,49,39,43,39,35,95,71,41,30.43,30.23,13,6,20,0.00
2013-5-25,66,54,40,47,41,37,94,65,39,30.44,30.30,5,2,10,0.00
2013-5-26,69,59,48,50,42,38,86,55,35,30.36,30.21,11,4,17,0.00
2013-5-27,62,56,50,58,52,41,99,86,49,30.23,29.94,10,5,20,0.88
2013-5-28,78,70,58,70,66,57,100,87,74,29.96,29.84,18,9,29,0.40
2013-5-29,82,74,65,70,66,62,92,75,58,30.01,29.89,14,9,23,0.09
2013-5-30,84,77,71,71,67,64,81,71,56,30.04,29.91,21,10,28,0.02
2013-5-31,76,68,-90,70,64,-100,98,87,76,29.98,29.84,17,0,28,1.14
2013-6-1,72,68,63,67,65,63,100,90,77,29.89,29.74,17,9,32,1.28
2013-6-2,67,60,47,62,55,42,95,85,72,30.06,29.74,15,7,22,0.00
2013-6-3,66,55,44,51,45,42,97,72,45,30.15,30.06,9,4,14,0.00
2013-6-4,73,62,49,51,48,45,89,62,40,30.21,30.13,7,3,13,0.00
2013-6-5,75,66,56,55,49,42,63,55,43,30.15,29.94,7,4,13,0.00
2013-6-6,74,65,58,57,51,41,81,61,43,29.97,29.84,16,7,22,0.00
2013-6-7,62,58,55,56,55,54,94,89,80,29.93,29.89,6,4,12,0.00
2013-6-10,77,69,64,68,65,63,99,87,64,29.87,29.77,14,6,23,1.13
2013-6-11,82,70,61,69,65,61,100,84,55,29.97,29.86,13,4,20,0.00
2013-6-12,86,74,67,77,71,66,100,88,72,29.93,29.60,15,4,20,2.18
2013-6-13,76,67,58,67,57,-100,100,75,48,30.01,29.50,18,-3,23,0.19
2013-6-14,78,66,54,62,58,54,98,77,46,30.13,30.00,8,3,13,0.00
2013-6-15,64,62,60,60,60,59,96,93,87,30.10,30.07,1,0,2,0.00
2013-6-19,76,70,58,59,53,47,78,55,44,30.18,30.10,6,2,8,0.00
2013-6-20,82,72,60,67,61,54,83,70,56,30.22,30.14,5,2,9,0.00
2013-6-21,86,76,69,68,64,60,89,66,43,30.20,29.98,21,6,27,0.00
2013-6-22,86,75,69,77,70,66,91,83,68,30.12,30.00,13,6,19,0.05
2013-6-23,86,76,67,72,68,66,96,80,55,30.10,30.00,14,7,23,0.03
2013-6-24,84,74,66,73,69,64,98,84,61,30.11,29.95,27,8,37,0.21
2013-6-25,87,76,68,77,71,66,97,85,63,30.01,29.82,18,7,28,0.00
2013-6-26,80,71,65,75,69,64,100,94,82,29.94,29.75,16,4,26,2.90
2013-6-27,85,74,67,75,70,65,100,89,63,29.80,29.68,12,3,19,0.23
2013-6-28,81,73,65,69,65,61,99,80,54,29.70,29.60,9,3,17,0.01
2013-6-29,74,66,62,66,64,59,100,93,74,29.74,29.58,17,3,29,0.14
2013-6-30,76,67,62,65,62,60,100,86,62,29.95,29.74,11,7,19,0.67
2013-7-1,74,65,59,63,58,51,91,79,66,30.06,29.95,14,7,22,0.01
2013-7-2,67,63,57,66,60,54,100,92,71,30.07,30.02,10,6,14,0.03
2013-7-3,77,70,65,68,66,63,100,87,66,30.11,30.03,13,5,19,0.04
2013-7-4,77,70,62,67,64,61,100,83,60,30.17,30.09,4,2,6,0.00
2013-7-5,82,73,64,72,67,64,99,83,63,30.14,30.06,7,2,12,0.00
2013-7-6,76,72,68,72,69,66,98,91,81,30.12,30.02,10,4,13,0.00
2013-7-7,81,73,66,73,70,66,100,89,74,30.08,30.00,10,6,16,0.00
2013-7-8,81,75,70,76,72,69,97,88,78,30.09,29.98,13,7,20,0.12
2013-7-9,86,79,73,78,75,73,99,89,73,30.03,29.91,14,7,22,0.01
2013-7-10,81,75,63,77,71,58,100,88,65,30.01,29.84,28,7,31,0.99
2013-7-11,63,62,61,59,58,57,89,87,85,30.02,30.00,3,1,5,0.00
2013-7-16,91,86,78,76,73,71,84,67,54,30.30,30.27,6,3,11,0.00
2013-7-17,91,82,73,77,74,70,95,76,58,30.34,30.19,8,3,12,0.00
2013-7-18,91,83,74,78,75,72,95,78,58,30.21,30.00,11,5,15,0.00
2013-7-19,90,83,76,78,75,74,93,79,60,30.01,29.80,17,9,27,0.01
2013-7-20,88,80,71,76,70,63,100,74,45,29.93,29.78,23,5,23,0.41
2013-7-21,85,76,64,71,67,62,95,75,53,29.99,29.89,6,2,10,0.00
2013-7-22,84,73,66,71,68,65,100,85,60,29.92,29.78,11,4,15,1.62
2013-7-23,81,71,58,70,64,-100,98,82,63,29.94,29.74,17,2,24,0.14
2013-7-24,71,61,51,59,53,49,94,77,54,30.08,29.94,10,5,15,0.00
2013-7-25,77,66,55,62,56,53,98,73,44,30.15,30.07,7,2,8,0.00
2013-7-26,75,68,61,64,60,56,87,76,62,30.12,29.93,10,5,17,0.00
2013-7-27,73,66,56,65,60,51,97,83,66,29.94,29.84,10,4,14,0.05
2013-7-28,67,58,51,54,52,49,92,78,57,30.06,29.91,14,6,24,0.01
2013-7-29,73,63,53,60,55,50,91,77,59,30.22,30.06,10,4,17,0.00
2013-7-30,75,66,57,64,60,55,97,80,59,30.25,30.13,6,2,9,0.00
2013-7-31,71,67,64,69,65,62,99,95,82,30.13,29.96,7,3,11,0.18
2013-8-1,79,69,61,69,61,55,100,79,46,30.01,29.96,7,2,19,0.21
2013-8-2,79,64,59,72,60,-100,99,90,75,30.03,29.86,13,-5,24,4.11
2013-8-3,78,68,61,68,62,52,100,81,47,30.11,29.96,11,3,19,0.01
2013-8-4,76,65,55,60,56,52,97,74,47,30.22,30.11,10,3,17,0.00
2013-8-5,74,65,56,64,59,52,93,79,66,30.17,29.97,9,3,12,0.00
2013-8-6,77,70,62,71,66,61,97,88,78,29.98,29.91,8,5,14,0.17
2013-8-7,83,73,68,75,71,66,100,91,74,29.93,29.85,10,5,24,0.10
2013-8-8,77,70,65,70,67,64,100,90,77,30.01,29.93,9,4,16,0.01
2013-8-9,81,71,62,67,63,60,96,79,50,30.05,29.97,7,2,10,0.00
2013-8-10,80,72,66,71,66,61,96,81,61,30.13,30.05,10,3,14,0.00
2013-8-11,81,71,59,67,62,58,97,76,49,30.15,30.07,6,2,11,0.00
2013-8-12,82,72,64,72,66,62,97,80,62,30.10,29.87,11,5,20,0.29
2013-8-13,69,62,54,65,56,49,99,80,51,30.15,29.91,14,6,21,0.01
2013-8-14,69,58,48,55,50,45,94,76,50,30.25,30.15,11,3,17,0.00
2013-8-15,75,64,49,60,53,48,96,68,47,30.22,30.15,3,1,6,0.00
2013-8-16,75,66,56,60,57,53,97,75,48,30.22,30.17,6,2,10,0.00
2013-8-17,76,66,56,62,58,55,99,76,50,30.28,30.20,6,2,10,0.00
2013-8-18,82,69,56,67,60,55,96,75,48,30.24,30.13,4,2,7,0.00
2013-8-19,83,72,61,68,62,59,94,74,51,30.16,30.07,7,2,13,0.00
2013-8-20,83,77,65,69,66,63,93,72,54,30.18,30.10,7,3,13,0.00
2013-8-21,85,76,68,72,68,65,92,76,56,30.16,30.02,9,5,17,0.00
2013-8-22,76,71,67,71,68,66,99,92,84,30.13,29.99,11,4,14,0.29
2013-8-23,79,70,64,69,63,55,100,83,46,30.20,30.10,7,4,13,0.00
2013-8-24,65,62,58,58,56,55,89,82,77,30.25,30.20,3,1,4,0.00
2013-8-28,85,80,74,76,73,68,86,78,68,29.98,29.88,10,6,17,0.00
2013-8-29,87,79,64,74,70,64,100,76,53,30.09,30.01,3,2,8,0.00
2013-8-30,88,80,68,75,72,66,95,75,60,29.99,29.76,17,6,22,0.00
2013-8-31,79,74,70,74,71,68,98,91,77,29.87,29.76,8,3,17,0.05
2013-9-1,82,72,66,72,70,66,100,92,72,29.83,29.76,8,3,13,0.01
2013-9-2,80,71,57,70,64,54,99,80,48,29.99,29.76,15,6,20,0.00
2013-9-3,74,62,51,59,55,50,97,79,53,30.10,29.98,8,2,14,0.00
2013-9-4,80,67,55,61,57,54,98,73,44,30.16,30.08,10,4,18,0.00
2013-9-5,77,66,57,58,53,46,92,65,35,30.27,30.14,9,4,13,0.00
2013-9-6,78,66,52,60,53,47,87,64,40,30.29,30.09,9,3,12,0.00
2013-9-7,87,73,62,69,62,55,87,70,43,30.09,29.93,11,5,17,0.00
2013-9-8,74,70,65,69,66,63,97,87,77,30.05,29.95,10,4,15,0.00
2013-9-9,89,74,63,74,66,56,91,77,59,30.04,29.89,10,5,15,0.00
2013-9-10,94,83,74,74,70,64,93,67,37,30.06,29.93,15,7,23,0.00
2013-9-11,93,80,71,72,70,64,94,73,40,30.08,29.95,16,7,28,0.00
2013-9-12,83,71,59,70,62,53,99,76,40,30.03,29.87,18,5,25,0.63
2013-9-13,64,56,49,53,46,40,87,70,45,30.18,30.04,14,8,22,0.00
2013-9-14,68,55,40,50,42,39,98,67,36,30.26,30.13,7,2,11,0.00
2013-9-15,66,58,52,58,49,41,95,71,58,30.15,30.04,8,4,11,0.09
2013-9-16,66,60,51,56,51,48,98,75,54,30.37,30.28,8,5,14,0.00
2013-9-17,68,57,45,53,49,44,96,75,54,30.41,30.22,6,3,12,0.00
2013-9-18,78,67,56,63,56,48,88,69,49,30.22,30.02,9,4,14,0.00
2013-9-19,71,67,65,69,66,63,99,97,82,30.07,29.90,14,5,23,1.99
2013-9-20,73,70,64,71,67,60,98,90,83,29.88,29.79,14,7,25,0.01
2013-9-21,68,60,52,60,52,47,98,79,51,29.94,29.77,14,5,23,0.05
2013-9-22,64,56,47,52,47,44,93,75,49,30.10,29.94,12,4,17,0.00
2013-9-23,66,54,41,50,46,40,97,76,53,30.19,30.10,8,3,12,0.00
2013-9-24,67,56,46,50,47,44,94,73,51,30.15,30.00,7,3,11,0.00
2013-9-25,71,59,48,55,51,47,98,76,46,30.02,29.96,5,3,10,0.00
2013-9-26,76,62,49,57,50,45,99,71,34,30.14,30.00,6,3,10,0.00
2013-9-27,76,64,50,56,51,43,87,62,44,30.23,30.14,7,3,9,0.00
2013-9-28,80,67,54,58,54,52,92,68,40,30.19,30.01,12,6,15,0.00
2013-9-29,69,62,53,61,53,-100,97,78,57,30.03,29.98,9,-14,11,0.15
2013-9-30,70,58,45,58,53,44,99,85,60,30.07,29.97,11,3,14,0.01
2013-10-1,73,64,59,64,61,56,100,90,72,30.06,29.98,11,6,21,0.00
2013-10-2,82,71,62,68,65,62,99,84,59,30.12,30.02,10,4,12,0.00
2013-10-3,77,69,64,70,66,61,99,91,71,30.05,29.93,16,5,26,0.78
2013-10-4,80,71,65,72,68,63,94,88,74,30.03,29.96,10,4,16,0.39
2013-10-5,74,69,66,72,68,65,100,97,89,30.02,29.85,22,6,24,0.92
2013-10-6,68,60,47,68,56,42,100,89,66,29.88,29.73,16,7,26,0.39
2013-10-7,61,50,43,50,44,41,95,81,58,30.17,29.81,16,7,27,0.00
2013-10-8,71,58,47,52,48,44,96,71,47,30.29,30.17,10,6,15,0.00
2013-10-9,70,58,44,51,46,42,94,66,41,30.32,30.21,6,3,11,0.00
2013-10-10,73,60,49,53,48,45,89,65,42,30.24,30.13,4,2,9,0.00
2013-10-11,59,55,53,47,46,45,80,73,61,30.13,30.11,3,2,4,0.00
2013-10-15,65,63,62,62,61,58,97,92,86,29.99,29.88,12,9,19,0.05
2013-10-16,63,52,46,61,48,44,95,86,80,30.00,29.89,16,8,23,0.00
2013-10-17,51,48,43,48,45,41,95,90,82,29.99,29.87,14,6,24,0.02
2013-10-18,61,48,41,47,42,39,94,82,55,30.03,29.94,18,8,27,0.00
2013-10-19,52,45,41,42,38,33,97,79,49,30.00,29.86,17,7,28,0.18
2013-10-20,62,51,41,45,41,37,86,69,49,29.99,29.87,14,9,26,0.00
2013-10-21,56,49,38,47,41,28,88,75,65,30.00,29.89,15,9,26,0.00
2013-10-22,48,37,31,34,29,22,96,75,37,30.06,29.97,11,6,19,0.06
2013-10-23,43,38,33,39,34,29,98,87,59,30.08,29.92,6,2,14,0.01
2013-10-24,44,37,31,34,31,28,91,80,64,30.33,30.06,15,5,19,0.00
2013-10-25,48,38,29,34,28,25,91,68,43,30.46,30.23,12,6,22,0.00
2013-10-26,55,44,39,39,33,28,81,65,52,30.22,29.90,22,10,37,0.00
2013-10-27,54,43,32,36,32,30,91,66,41,30.15,30.07,12,5,22,0.00
2013-10-28,59,46,37,40,34,30,88,66,44,30.40,30.12,6,2,8,0.00
2013-10-29,54,47,35,42,40,32,91,77,61,30.45,30.25,9,3,10,0.00
2013-10-30,62,53,42,62,49,39,100,87,74,30.26,29.92,11,4,17,0.16
2013-10-31,63,59,52,63,58,-100,100,99,99,29.92,29.27,20,4,34,1.28
2013-11-1,51,47,44,51,44,41,100,89,72,29.77,29.33,20,12,34,0.07
2013-11-2,50,44,42,45,42,38,97,91,79,30.15,29.76,10,5,22,0.05
2013-11-3,48,43,39,40,38,36,96,86,69,30.41,30.15,6,3,12,0.00
2013-11-4,53,46,38,43,38,35,90,76,61,30.43,30.29,15,8,25,0.00
2013-11-5,56,52,49,50,46,43,89,78,69,30.39,30.14,14,8,20,0.00
2013-11-6,57,51,41,53,45,-100,97,86,65,30.14,29.88,19,2,30,0.31
2013-11-7,46,39,33,38,32,25,89,76,47,30.30,30.12,16,7,29,0.00
2013-11-8,46,38,29,34,31,28,96,77,57,30.40,30.19,12,6,16,0.00
2013-11-9,60,50,43,43,37,31,77,62,47,30.19,29.94,23,15,39,0.00
2013-11-10,46,40,36,39,32,28,82,71,58,30.37,30.08,18,6,27,0.00
2013-11-11,46,39,29,40,32,22,97,79,66,30.45,30.14,21,10,27,0.16
2013-11-12,34,28,22,28,22,19,88,80,68,30.69,30.45,10,4,18,0.00
2013-11-13,36,28,19,22,19,17,90,72,50,30.68,30.34,15,10,26,0.00
2013-11-14,51,40,30,27,24,21,71,53,33,30.34,30.09,18,12,27,0.00
2013-11-15,51,45,40,34,30,26,67,55,45,30.12,30.05,13,8,18,0.00
2013-11-16,58,50,41,57,47,33,95,89,68,30.08,29.77,22,15,29,0.08
2013-11-17,63,57,45,62,54,39,99,91,75,29.77,29.29,32,17,59,1.35
2013-11-18,45,40,36,39,34,28,90,80,68,30.26,29.73,20,9,35,0.00
2013-11-19,42,36,32,30,28,26,85,74,58,30.42,30.26,12,3,14,0.00
2013-11-20,44,36,29,35,29,25,86,75,63,30.43,30.23,12,6,19,0.00
2013-11-21,47,45,42,46,42,35,99,89,71,30.31,30.22,14,6,19,0.67
2013-11-22,46,40,29,46,38,27,100,94,86,30.49,30.21,17,5,29,0.02
2013-11-23,31,25,18,27,20,14,93,84,65,30.69,30.43,15,7,27,0.01
2013-11-24,26,19,14,18,14,8,94,79,58,30.76,30.55,13,5,22,0.00
2013-11-25,30,25,19,26,18,9,91,73,61,30.55,30.22,16,10,25,0.00
2013-11-26,31,29,27,26,25,24,90,88,81,30.22,30.13,11,6,19,0.00
2013-11-27,26,24,21,23,20,17,92,86,76,30.33,30.13,11,5,19,0.00
2013-11-28,33,25,21,23,18,15,80,73,57,30.53,30.30,12,5,19,0.00
2013-11-29,37,30,25,24,22,20,84,71,54,30.72,30.53,8,3,11,0.00
2013-11-30,48,37,30,33,28,22,80,69,53,30.56,30.17,15,9,23,0.00
2013-12-1,45,37,31,38,31,27,87,78,62,30.17,30.06,8,3,12,0.00
2013-12-2,36,33,29,32,30,27,95,89,82,30.06,29.90,7,3,10,0.03
2013-12-3,49,41,34,47,40,32,97,95,92,29.90,29.80,10,6,14,0.12
2013-12-4,60,51,45,57,50,44,100,96,91,29.86,29.65,15,9,21,0.00
2013-12-5,60,35,26,57,31,20,92,83,77,30.27,29.67,20,12,30,0.01
2013-12-6,27,26,23,23,20,15,86,80,72,30.52,30.24,9,3,15,0.00
2013-12-7,25,19,15,17,14,11,89,79,64,30.72,30.52,11,3,17,0.00
2013-12-8,26,21,15,25,17,12,96,84,70,30.65,30.06,11,6,19,0.00
2013-12-9,28,22,14,26,18,6,96,84,69,30.28,30.01,22,12,33,0.00
2013-12-10,23,14,2,14,6,-3,82,73,62,30.39,30.15,24,11,36,0.00
2013-12-11,24,16,7,20,12,2,92,81,68,30.60,30.38,10,5,19,0.00
2013-12-12,20,10,-4,12,3,-8,84,73,56,30.63,30.37,17,10,29,0.00
2013-12-13,32,22,13,25,15,7,95,76,54,30.37,30.22,10,4,14,0.00
2013-12-14,26,24,20,25,23,18,96,95,92,30.25,29.90,11,7,16,0.00
2013-12-15,25,16,8,23,13,5,94,87,77,30.20,29.98,18,9,26,0.00
2013-12-16,20,15,9,16,12,5,94,87,75,30.27,30.11,8,3,11,0.00
2013-12-17,27,21,16,25,19,15,95,93,87,30.16,30.04,17,9,24,0.00
2013-12-18,35,22,14,24,16,12,92,79,63,30.30,30.00,19,9,26,0.00
2013-12-19,44,40,35,42,35,24,94,82,65,30.05,29.90,19,10,24,0.01
2013-12-20,51,45,40,51,44,40,100,98,89,29.90,29.74,14,6,17,0.25
2013-12-21,39,34,33,39,34,33,100,100,100,29.88,29.57,15,6,29,1.20
2013-12-22,35,33,30,35,33,30,100,100,98,30.11,29.52,18,8,30,0.17
2013-12-23,30,24,21,30,17,-100,98,87,83,30.42,30.11,16,-35,26,0.00
2013-12-24,18,12,2,13,8,-2,89,84,78,30.66,30.57,11,6,26,0.00
2013-12-25,26,22,16,25,19,13,96,87,81,30.56,30.19,16,9,19,0.00
2013-12-26,32,26,17,27,22,14,97,85,73,30.39,30.17,18,10,28,0.00
2013-12-27,40,35,29,34,30,26,91,83,75,30.40,30.21,16,9,25,0.00
2013-12-28,48,41,35,38,34,31,87,77,66,30.22,29.96,16,11,31,0.00
2013-12-29,41,34,23,34,28,20,93,81,66,30.14,29.83,12,6,18,0.00
2013-12-30,23,18,13,20,13,9,88,80,68,30.36,30.14,10,5,17,0.00
2013-12-31,15,13,7,13,9,4,92,85,74,30.46,30.24,13,7,25,0.00
2014-1-1,20,17,13,16,14,11,93,91,86,30.41,30.23,12,7,16,0.00
2014-1-2,14,12,1,12,8,-4,92,85,71,30.46,30.13,21,12,29,0.00